Time;durP1;ratioP1;P1;durP2;ratioP2;P2;SDS_P1;SDS_P2;PMS_P1;PMS_P2;Temp;Humidity;BMP_temperature;BMP_pressure;BME280_temperature;BME280_humidity;BME280_pressure;Samples;Min_cycle;Max_cycle;Signal;HPM_P1;HPM_P2
2022/09/03 00:01:42;;;;;;;3.78;1.48;;;16.00;77.30;;;;;;5030138;28;20033;-73
2022/09/03 00:04:23;;;;;;;2.63;1.50;;;16.00;77.20;;;;;;5030522;28;20030;-73
2022/09/03 00:06:56;;;;;;;2.72;1.30;;;15.90;77.20;;;;;;5031301;28;20120;-72
2022/09/03 00:09:28;;;;;;;3.83;1.30;;;15.90;77.20;;;;;;5024396;28;20033;-73
2022/09/03 00:12:18;;;;;;;2.60;1.33;;;15.90;77.30;;;;;;5031260;28;20034;-73
2022/09/03 00:15:04;;;;;;;1.98;1.50;;;15.90;77.70;;;;;;5029613;28;20495;-73
2022/09/03 00:17:36;;;;;;;3.60;1.50;;;15.80;77.90;;;;;;5051401;28;20087;-73
2022/09/03 00:20:11;;;;;;;4.60;1.75;;;15.80;77.90;;;;;;5020198;28;20026;-73
2022/09/03 00:22:47;;;;;;;3.20;1.80;;;15.80;78.00;;;;;;5031109;28;20092;-73
2022/09/03 00:25:20;;;;;;;3.33;1.42;;;15.70;77.90;;;;;;5029833;28;20032;-73
2022/09/03 00:27:49;;;;;;;2.67;1.70;;;15.70;78.10;;;;;;5023508;28;20033;-73
2022/09/03 00:30:16;;;;;;;2.17;1.27;;;15.70;78.20;;;;;;5030271;28;20040;-72
2022/09/03 00:32:51;;;;;;;3.85;1.45;;;15.70;78.40;;;;;;5029130;28;20500;-73
2022/09/03 00:35:23;;;;;;;6.05;1.92;;;15.70;78.40;;;;;;5028683;28;20484;-73
2022/09/03 00:37:54;;;;;;;3.78;1.80;;;15.70;78.50;;;;;;5033090;28;20076;-72
2022/09/03 00:40:31;;;;;;;2.72;1.33;;;15.60;78.50;;;;;;5038330;28;20433;-72
2022/09/03 00:43:12;;;;;;;3.90;2.03;;;15.60;78.70;;;;;;5030732;28;20030;-73
2022/09/03 00:45:38;;;;;;;3.55;1.70;;;15.60;78.70;;;;;;5029401;28;20029;-73
2022/09/03 00:48:06;;;;;;;2.30;1.40;;;15.60;78.90;;;;;;5030031;28;20079;-72
2022/09/03 00:50:59;;;;;;;2.88;1.35;;;15.50;79.10;;;;;;5012275;28;20064;-71
2022/09/03 00:53:50;;;;;;;3.45;1.67;;;15.50;78.90;;;;;;5033232;28;20095;-71
2022/09/03 00:56:36;;;;;;;2.95;1.50;;;15.50;79.00;;;;;;5026481;28;20048;-72
2022/09/03 00:59:06;;;;;;;5.82;1.70;;;15.50;79.20;;;;;;5036570;28;20075;-71
2022/09/03 01:01:47;;;;;;;2.55;1.48;;;15.40;79.40;;;;;;5026578;28;20057;-72
2022/09/03 01:04:24;;;;;;;2.33;1.42;;;15.40;79.40;;;;;;5030238;28;20065;-71
2022/09/03 01:07:07;;;;;;;3.55;1.67;;;15.40;79.50;;;;;;5031826;28;20102;-72
2022/09/03 01:09:57;;;;;;;2.72;1.75;;;15.40;79.60;;;;;;5032980;28;20036;-71
2022/09/03 01:12:48;;;;;;;4.10;1.55;;;15.30;79.60;;;;;;5038897;28;20029;-72
2022/09/03 01:15:41;;;;;;;3.95;1.80;;;15.30;79.60;;;;;;5031663;28;20045;-72
2022/09/03 01:18:24;;;;;;;3.35;1.33;;;15.30;79.70;;;;;;5033764;28;20504;-71
2022/09/03 01:21:27;;;;;;;4.30;1.70;;;15.30;79.80;;;;;;5032140;28;20069;-71
2022/09/03 01:24:20;;;;;;;3.88;1.85;;;15.30;79.90;;;;;;5034782;28;20116;-71
2022/09/03 01:27:05;;;;;;;3.35;1.65;;;15.20;79.90;;;;;;5041843;28;20033;-71
2022/09/03 01:29:45;;;;;;;2.60;1.70;;;15.20;80.10;;;;;;5033497;28;20136;-72
2022/09/03 01:32:22;;;;;;;2.75;1.50;;;15.20;80.10;;;;;;5030706;28;20140;-72
2022/09/03 01:35:09;;;;;;;5.85;1.60;;;15.20;80.30;;;;;;5033298;28;20182;-73
2022/09/03 01:38:04;;;;;;;2.45;1.40;;;15.20;80.30;;;;;;5033498;28;20034;-72
2022/09/03 01:40:46;;;;;;;3.38;1.58;;;15.20;80.50;;;;;;5018277;28;20030;-73
2022/09/03 01:43:41;;;;;;;3.28;1.50;;;15.20;80.80;;;;;;5031152;28;20053;-72
2022/09/03 01:46:13;;;;;;;3.20;1.37;;;15.20;80.90;;;;;;5031833;28;20029;-71
2022/09/03 01:49:10;;;;;;;1.95;1.40;;;15.10;80.80;;;;;;5034065;28;20033;-72
2022/09/03 01:51:35;;;;;;;3.00;1.60;;;15.10;81.00;;;;;;5031926;28;20033;-73
2022/09/03 01:54:37;;;;;;;2.70;1.50;;;15.10;81.00;;;;;;5034163;28;20527;-72
2022/09/03 01:57:40;;;;;;;3.95;1.70;;;15.10;81.00;;;;;;5022193;28;20044;-72
2022/09/03 02:00:19;;;;;;;3.22;1.50;;;15.10;81.00;;;;;;5040361;28;20640;-73
2022/09/03 02:02:50;;;;;;;2.75;1.30;;;15.10;81.30;;;;;;5030238;28;20041;-72
2022/09/03 02:05:28;;;;;;;3.58;1.50;;;15.00;81.30;;;;;;5044723;28;20044;-72
2022/09/03 02:08:00;;;;;;;4.05;1.55;;;15.00;81.40;;;;;;5033101;28;20029;-71
2022/09/03 02:10:37;;;;;;;2.35;1.35;;;15.00;81.40;;;;;;5015273;28;20040;-71
2022/09/03 02:13:10;;;;;;;3.08;1.75;;;15.00;81.50;;;;;;5032617;28;20060;-72
2022/09/03 02:15:39;;;;;;;1.83;1.35;;;15.00;81.80;;;;;;5014202;28;20064;-72
2022/09/03 02:18:12;;;;;;;2.70;1.52;;;14.90;81.60;;;;;;5032664;28;20323;-72
2022/09/03 02:20:39;;;;;;;2.22;1.40;;;14.90;81.90;;;;;;5037452;28;20033;-72
2022/09/03 02:23:05;;;;;;;2.33;1.60;;;14.90;81.90;;;;;;5008291;28;20037;-72
2022/09/03 02:25:40;;;;;;;2.88;1.50;;;14.90;81.90;;;;;;5041807;28;20044;-71
2022/09/03 02:28:08;;;;;;;3.13;1.60;;;14.90;82.00;;;;;;5013808;28;20392;-71
2022/09/03 02:30:34;;;;;;;3.85;1.55;;;14.90;82.00;;;;;;5014680;28;20493;-72
2022/09/03 02:32:59;;;;;;;5.70;1.73;;;14.90;82.60;;;;;;5038571;28;20036;-72
2022/09/03 02:35:25;;;;;;;6.15;2.00;;;14.80;82.40;;;;;;5033830;28;20029;-72
2022/09/03 02:37:51;;;;;;;2.65;1.40;;;14.90;82.30;;;;;;5038998;28;20033;-73
2022/09/03 02:40:17;;;;;;;4.13;1.50;;;14.80;82.30;;;;;;5032168;28;20027;-72
2022/09/03 02:42:45;;;;;;;3.17;1.60;;;14.80;82.40;;;;;;5032254;28;20036;-72
2022/09/03 02:45:28;;;;;;;2.83;1.60;;;14.80;82.50;;;;;;5039024;28;20025;-71
2022/09/03 02:47:58;;;;;;;3.50;1.50;;;14.80;82.60;;;;;;5038030;28;20459;-71
2022/09/03 02:50:25;;;;;;;2.90;1.88;;;14.70;82.70;;;;;;5030978;28;20037;-71
2022/09/03 02:52:51;;;;;;;2.78;1.70;;;14.70;82.70;;;;;;5029581;28;20031;-71
2022/09/03 02:55:18;;;;;;;2.95;1.60;;;14.70;82.80;;;;;;5052786;28;20083;-71
2022/09/03 02:57:44;;;;;;;2.65;1.98;;;14.70;82.90;;;;;;5036349;28;20045;-71
2022/09/03 03:00:10;;;;;;;3.42;1.65;;;14.70;82.90;;;;;;5031735;28;20461;-72
2022/09/03 03:02:36;;;;;;;3.17;1.55;;;14.70;83.00;;;;;;5023386;28;20033;-72
2022/09/03 03:05:02;;;;;;;2.67;1.50;;;14.60;83.20;;;;;;5032952;28;20025;-72
2022/09/03 03:07:33;;;;;;;3.55;1.60;;;14.70;83.10;;;;;;5004303;28;20140;-72
2022/09/03 03:09:58;;;;;;;4.70;1.55;;;14.70;83.50;;;;;;5023082;28;20114;-72
2022/09/03 03:12:25;;;;;;;2.75;1.75;;;14.60;83.30;;;;;;5031348;28;20021;-72
2022/09/03 03:14:50;;;;;;;2.55;1.50;;;14.60;83.10;;;;;;5018928;28;20386;-72
2022/09/03 03:17:16;;;;;;;2.97;1.40;;;14.60;83.40;;;;;;5011413;28;20034;-72
2022/09/03 03:19:42;;;;;;;3.65;1.80;;;14.50;83.10;;;;;;5022781;28;20029;-72
2022/09/03 03:22:07;;;;;;;2.50;1.73;;;14.50;83.20;;;;;;5032953;28;20029;-72
2022/09/03 03:24:33;;;;;;;2.78;1.30;;;14.50;83.20;;;;;;5033561;28;20026;-72
2022/09/03 03:26:58;;;;;;;3.03;1.80;;;14.50;83.30;;;;;;5034482;28;20041;-72
2022/09/03 03:29:24;;;;;;;2.45;1.60;;;14.50;83.50;;;;;;5029835;28;20045;-72
2022/09/03 03:31:50;;;;;;;5.00;1.52;;;14.50;83.40;;;;;;5031534;28;20384;-71
2022/09/03 03:34:16;;;;;;;3.13;1.48;;;14.50;83.70;;;;;;5015294;28;20030;-72
2022/09/03 03:36:42;;;;;;;2.58;1.67;;;14.40;83.60;;;;;;5018039;28;20174;-72
2022/09/03 03:39:08;;;;;;;4.28;1.70;;;14.40;83.60;;;;;;5026576;28;20014;-71
2022/09/03 03:41:35;;;;;;;4.30;1.70;;;14.40;84.00;;;;;;5030323;28;20476;-73
2022/09/03 03:44:03;;;;;;;2.47;1.50;;;14.40;84.20;;;;;;5031712;28;20029;-72
2022/09/03 03:46:35;;;;;;;4.45;1.70;;;14.40;84.30;;;;;;5032099;28;20101;-72
2022/09/03 03:49:01;;;;;;;3.05;1.77;;;14.40;84.20;;;;;;5025176;28;20045;-72
2022/09/03 03:51:27;;;;;;;2.80;1.73;;;14.40;84.50;;;;;;5030731;28;20036;-71
2022/09/03 03:53:55;;;;;;;2.85;1.80;;;14.40;84.80;;;;;;5031626;28;20029;-72
2022/09/03 03:56:22;;;;;;;2.30;1.50;;;14.40;84.30;;;;;;5030797;28;20488;-72
2022/09/03 03:58:48;;;;;;;6.00;1.90;;;14.40;84.60;;;;;;5029606;28;20040;-71
2022/09/03 04:01:25;;;;;;;2.40;1.85;;;14.40;84.60;;;;;;5025327;28;20448;-71
2022/09/03 04:03:53;;;;;;;3.22;1.70;;;14.40;84.80;;;;;;5006880;28;20040;-71
2022/09/03 04:06:19;;;;;;;4.82;1.70;;;14.50;84.60;;;;;;5013092;28;20464;-70
2022/09/03 04:08:47;;;;;;;3.03;1.77;;;14.40;84.60;;;;;;5030895;28;20029;-70
2022/09/03 04:11:19;;;;;;;3.10;1.80;;;14.40;85.00;;;;;;5026406;28;20483;-71
2022/09/03 04:13:46;;;;;;;4.13;1.50;;;14.50;84.70;;;;;;5026066;28;20044;-70
2022/09/03 04:16:12;;;;;;;3.45;1.83;;;14.40;84.70;;;;;;5005771;28;20392;-71
2022/09/03 04:18:38;;;;;;;2.72;1.98;;;14.50;84.80;;;;;;5030657;28;20071;-70
2022/09/03 04:21:07;;;;;;;4.10;1.65;;;14.40;84.60;;;;;;5030629;28;20473;-71
2022/09/03 04:23:38;;;;;;;2.47;1.70;;;14.40;84.60;;;;;;5034146;28;20368;-71
2022/09/03 04:26:05;;;;;;;4.45;2.08;;;14.40;85.00;;;;;;5042818;28;20415;-71
2022/09/03 04:28:31;;;;;;;4.60;1.90;;;14.40;85.00;;;;;;5029784;28;20048;-71
2022/09/03 04:31:05;;;;;;;3.15;1.70;;;14.40;85.00;;;;;;5030742;28;20030;-72
2022/09/03 04:33:32;;;;;;;3.47;1.93;;;14.40;85.00;;;;;;5030107;28;20121;-71
2022/09/03 04:36:07;;;;;;;4.18;2.08;;;14.30;85.00;;;;;;5030003;28;20778;-72
2022/09/03 04:38:34;;;;;;;2.17;1.65;;;14.30;85.20;;;;;;5030401;28;20065;-72
2022/09/03 04:41:00;;;;;;;3.08;1.88;;;14.30;85.20;;;;;;5018053;28;20088;-72
2022/09/03 04:43:27;;;;;;;4.35;1.95;;;14.40;85.30;;;;;;5020496;28;20300;-72
2022/09/03 04:46:00;;;;;;;3.10;2.05;;;14.30;85.50;;;;;;5034470;28;20137;-73
2022/09/03 04:48:27;;;;;;;3.88;1.95;;;14.30;85.60;;;;;;5034150;28;20041;-72
2022/09/03 04:50:54;;;;;;;3.13;1.80;;;14.30;85.70;;;;;;5034366;28;20061;-73
2022/09/03 04:53:21;;;;;;;3.20;2.00;;;14.30;85.90;;;;;;5034084;28;20038;-72
2022/09/03 04:55:47;;;;;;;3.75;2.17;;;14.30;86.10;;;;;;5035114;28;20531;-71
2022/09/03 04:58:13;;;;;;;3.78;2.00;;;14.30;86.20;;;;;;5003136;28;20048;-71
2022/09/03 05:00:39;;;;;;;3.83;2.10;;;14.30;86.10;;;;;;5040008;28;20029;-72
2022/09/03 05:03:04;;;;;;;4.45;2.08;;;14.30;86.30;;;;;;5029231;28;20038;-72
2022/09/03 05:05:32;;;;;;;3.38;1.98;;;14.30;86.50;;;;;;5035915;28;20025;-71
2022/09/03 05:08:00;;;;;;;3.40;2.05;;;14.30;86.80;;;;;;5035031;28;20098;-71
2022/09/03 05:10:26;;;;;;;4.55;2.92;;;14.30;86.80;;;;;;5032782;28;20379;-71
2022/09/03 05:13:03;;;;;;;4.15;2.15;;;14.40;87.30;;;;;;5033836;28;20057;-72
2022/09/03 05:15:31;;;;;;;3.00;1.88;;;14.30;87.50;;;;;;5016848;28;20029;-71
2022/09/03 05:18:00;;;;;;;3.15;1.85;;;14.30;87.50;;;;;;5033900;28;20073;-71
2022/09/03 05:20:26;;;;;;;3.05;2.03;;;14.30;87.50;;;;;;5033880;28;20032;-71
2022/09/03 05:22:52;;;;;;;3.88;2.28;;;14.40;87.80;;;;;;5037012;28;20037;-71
2022/09/03 05:25:18;;;;;;;2.90;2.20;;;14.30;87.70;;;;;;5034731;28;20083;-73
2022/09/03 05:27:43;;;;;;;4.93;2.13;;;14.40;88.10;;;;;;5029096;28;20029;-71
2022/09/03 05:30:09;;;;;;;2.90;2.15;;;14.40;88.30;;;;;;5039525;28;20030;-72
2022/09/03 05:32:35;;;;;;;4.10;2.17;;;14.30;88.30;;;;;;5033060;28;20056;-71
2022/09/03 05:35:01;;;;;;;3.13;2.10;;;14.30;88.40;;;;;;5054241;28;20051;-71
2022/09/03 05:37:26;;;;;;;2.97;2.00;;;14.40;88.70;;;;;;5038789;28;20043;-71
2022/09/03 05:39:52;;;;;;;5.72;1.85;;;14.40;88.70;;;;;;5033042;28;20029;-72
2022/09/03 05:42:18;;;;;;;2.97;1.92;;;14.40;88.70;;;;;;5032666;28;20060;-72
2022/09/03 05:44:44;;;;;;;5.78;2.15;;;14.40;89.00;;;;;;5034430;28;20056;-72
2022/09/03 05:47:10;;;;;;;3.72;2.25;;;14.40;89.20;;;;;;5023318;28;20067;-72
2022/09/03 05:49:35;;;;;;;4.75;1.85;;;14.50;89.30;;;;;;5033511;28;20083;-71
2022/09/03 05:52:02;;;;;;;6.85;2.30;;;14.50;89.40;;;;;;5031893;28;20034;-71
2022/09/03 05:54:27;;;;;;;5.28;2.15;;;14.60;89.50;;;;;;5033573;28;20053;-74
2022/09/03 05:56:53;;;;;;;3.03;1.98;;;14.60;89.60;;;;;;5033122;28;20064;-71
2022/09/03 05:59:19;;;;;;;4.47;2.33;;;14.60;89.60;;;;;;5053757;28;20043;-72
2022/09/03 06:01:45;;;;;;;3.38;2.15;;;14.60;89.90;;;;;;5033282;28;20079;-71
2022/09/03 06:04:13;;;;;;;5.60;1.80;;;14.70;90.10;;;;;;5033746;28;20077;-71
2022/09/03 06:06:40;;;;;;;3.28;1.90;;;14.70;90.00;;;;;;5032685;28;20039;-72
2022/09/03 06:09:12;;;;;;;4.65;2.20;;;14.70;90.10;;;;;;5033656;28;20428;-71
2022/09/03 06:11:41;;;;;;;3.08;1.98;;;14.80;90.10;;;;;;5033650;28;20060;-69
2022/09/03 06:14:08;;;;;;;3.25;1.90;;;14.80;90.20;;;;;;5031829;28;20024;-69
2022/09/03 06:16:39;;;;;;;3.45;1.92;;;14.90;90.10;;;;;;5017413;28;20061;-69
2022/09/03 06:19:09;;;;;;;5.27;2.03;;;14.90;90.00;;;;;;5014603;28;20080;-67
2022/09/03 06:21:41;;;;;;;3.72;1.95;;;15.00;90.10;;;;;;5032422;28;20299;-68
2022/09/03 06:24:28;;;;;;;5.05;2.40;;;15.00;90.10;;;;;;5032610;28;20029;-69
2022/09/03 06:26:56;;;;;;;3.83;1.85;;;15.00;90.10;;;;;;5033799;28;20042;-69
2022/09/03 06:29:22;;;;;;;3.63;2.35;;;15.10;90.10;;;;;;5014154;28;20046;-70
2022/09/03 06:31:49;;;;;;;5.18;2.20;;;15.10;90.20;;;;;;5018799;28;20107;-72
2022/09/03 06:34:17;;;;;;;3.42;2.05;;;15.20;90.30;;;;;;5027573;28;20037;-71
2022/09/03 06:36:43;;;;;;;3.10;1.90;;;15.30;90.30;;;;;;5021370;28;20069;-71
2022/09/03 06:39:09;;;;;;;3.20;2.25;;;15.30;90.10;;;;;;5020876;28;20112;-70
2022/09/03 06:41:35;;;;;;;4.25;2.38;;;15.40;90.30;;;;;;5026742;28;20227;-71
2022/09/03 06:44:10;;;;;;;4.22;2.08;;;15.50;90.40;;;;;;5028094;28;20041;-71
2022/09/03 06:46:43;;;;;;;3.33;2.00;;;15.60;90.40;;;;;;5028646;28;20115;-71
2022/09/03 06:49:10;;;;;;;3.70;2.28;;;15.70;90.30;;;;;;5013145;28;20057;-71
2022/09/03 06:51:36;;;;;;;4.25;1.83;;;15.70;90.10;;;;;;5015978;28;20034;-70
2022/09/03 06:54:05;;;;;;;4.35;2.35;;;15.80;90.00;;;;;;5026149;28;20030;-71
2022/09/03 06:56:31;;;;;;;4.10;2.20;;;15.90;89.90;;;;;;5021082;28;20080;-70
2022/09/03 06:58:59;;;;;;;5.32;2.30;;;15.90;89.60;;;;;;5029515;28;20053;-70
2022/09/03 07:01:29;;;;;;;3.53;1.90;;;16.00;89.80;;;;;;5015369;28;20215;-70
2022/09/03 07:04:00;;;;;;;3.00;2.10;;;16.00;90.00;;;;;;5027888;28;20394;-70
2022/09/03 07:06:28;;;;;;;3.55;2.13;;;16.10;89.80;;;;;;5031436;28;20025;-70
2022/09/03 07:08:56;;;;;;;3.63;1.92;;;16.10;89.60;;;;;;5031047;28;20029;-70
2022/09/03 07:11:25;;;;;;;3.28;1.95;;;16.20;89.20;;;;;;5028086;28;20116;-70
2022/09/03 07:13:53;;;;;;;3.47;1.75;;;16.20;89.20;;;;;;5031020;28;20083;-71
2022/09/03 07:16:27;;;;;;;3.03;1.73;;;16.30;89.60;;;;;;5031927;28;20279;-70
2022/09/03 07:18:53;;;;;;;3.42;1.80;;;16.40;89.20;;;;;;5025516;28;20108;-70
2022/09/03 07:21:24;;;;;;;3.45;2.13;;;16.40;89.00;;;;;;5019045;28;20116;-70
2022/09/03 07:23:51;;;;;;;4.10;2.05;;;16.40;88.90;;;;;;5011444;28;20026;-71
2022/09/03 07:26:25;;;;;;;2.85;1.65;;;16.50;89.00;;;;;;5012450;28;20022;-71
2022/09/03 07:28:53;;;;;;;;;;;16.50;89.70;;;;;;5016118;28;20056;-71
2022/09/03 07:31:24;;;;;;;3.75;2.30;;;16.60;89.50;;;;;;5018950;28;19909;-71
2022/09/03 07:33:56;;;;;;;3.28;1.85;;;16.70;89.10;;;;;;5029968;28;20044;-71
2022/09/03 07:36:23;;;;;;;5.05;2.10;;;16.70;89.30;;;;;;5022431;28;20056;-71
2022/09/03 07:38:48;;;;;;;3.08;1.80;;;16.80;88.80;;;;;;5016622;28;20312;-70
2022/09/03 07:41:14;;;;;;;3.13;1.70;;;16.90;88.40;;;;;;5031664;28;20116;-71
2022/09/03 07:43:46;;;;;;;2.75;1.58;;;17.00;88.00;;;;;;5032722;28;20030;-71
2022/09/03 07:46:22;;;;;;;3.83;1.98;;;17.10;87.90;;;;;;5030654;28;20033;-70
2022/09/03 07:48:52;;;;;;;3.85;2.05;;;17.20;87.80;;;;;;5026999;28;20029;-69
2022/09/03 07:51:20;;;;;;;4.85;2.00;;;17.30;87.40;;;;;;5022554;28;20127;-68
2022/09/03 07:53:47;;;;;;;2.58;1.90;;;17.40;87.10;;;;;;5024987;28;20025;-70
2022/09/03 07:56:14;;;;;;;4.32;2.75;;;17.50;87.10;;;;;;5012428;28;20406;-69
2022/09/03 07:58:41;;;;;;;5.50;1.90;;;17.50;86.70;;;;;;5020748;28;20045;-69
2022/09/03 08:01:08;;;;;;;4.72;2.25;;;17.60;87.20;;;;;;5011455;28;20311;-69
2022/09/03 08:03:34;;;;;;;5.50;2.17;;;17.70;87.00;;;;;;5028889;28;20212;-69
2022/09/03 08:06:02;;;;;;;4.45;2.08;;;17.80;86.60;;;;;;5026952;28;20080;-69
2022/09/03 08:08:28;;;;;;;4.97;2.25;;;17.90;86.70;;;;;;5022309;28;20456;-69
2022/09/03 08:10:54;;;;;;;4.47;1.88;;;17.90;85.80;;;;;;5030493;28;20061;-69
2022/09/03 08:13:19;;;;;;;5.97;2.17;;;17.90;85.70;;;;;;5025817;28;20464;-69
2022/09/03 08:15:55;;;;;;;3.55;2.10;;;18.00;85.70;;;;;;5015855;28;20325;-69
2022/09/03 08:18:22;;;;;;;5.95;2.78;;;18.00;85.70;;;;;;5023467;28;20542;-70
2022/09/03 08:20:48;;;;;;;2.83;1.70;;;18.10;85.90;;;;;;5012940;28;20366;-69
2022/09/03 08:23:14;;;;;;;4.35;1.75;;;18.20;85.40;;;;;;5028121;28;20196;-70
2022/09/03 08:25:40;;;;;;;4.60;1.88;;;18.30;84.80;;;;;;5020494;28;20036;-69
2022/09/03 08:28:05;;;;;;;5.40;2.00;;;18.40;84.60;;;;;;5029741;28;20471;-70
2022/09/03 08:30:31;;;;;;;2.38;1.67;;;18.40;84.20;;;;;;5018086;28;20026;-70
2022/09/03 08:33:03;;;;;;;6.00;1.83;;;18.50;84.00;;;;;;5022151;28;20084;-70
2022/09/03 08:35:33;;;;;;;4.95;2.05;;;18.50;83.90;;;;;;5024961;28;20087;-70
2022/09/03 08:38:04;;;;;;;2.83;1.90;;;18.60;83.60;;;;;;5035785;28;20107;-70
2022/09/03 08:40:32;;;;;;;3.55;1.95;;;18.50;83.00;;;;;;5035238;28;20480;-70
2022/09/03 08:43:17;;;;;;;5.03;1.98;;;18.50;83.20;;;;;;5017723;28;20042;-69
2022/09/03 08:45:44;;;;;;;3.70;1.65;;;18.60;83.10;;;;;;5031664;28;20492;-69
2022/09/03 08:48:16;;;;;;;2.60;1.58;;;18.60;83.20;;;;;;5030506;28;20030;-70
2022/09/03 08:50:50;;;;;;;3.30;2.17;;;18.60;83.20;;;;;;5031390;28;20041;-70
2022/09/03 08:53:53;;;;;;;3.40;1.98;;;18.50;82.70;;;;;;5014221;28;20045;-70
2022/09/03 08:56:29;;;;;;;3.80;1.90;;;18.50;82.70;;;;;;5010382;28;20085;-70
2022/09/03 08:58:55;;;;;;;3.15;1.77;;;18.50;82.70;;;;;;5022259;28;20034;-70
2022/09/03 09:01:53;;;;;;;2.97;1.80;;;18.50;82.50;;;;;;5028499;28;20396;-68
2022/09/03 09:04:45;;;;;;;3.78;1.75;;;18.50;82.50;;;;;;5011888;28;20026;-68
2022/09/03 09:07:22;;;;;;;2.92;1.73;;;18.50;82.60;;;;;;5027563;28;20061;-67
2022/09/03 09:10:00;;;;;;;4.55;1.80;;;18.50;82.60;;;;;;5025566;28;20080;-68
2022/09/03 09:12:43;;;;;;;3.63;1.80;;;18.50;82.40;;;;;;5028250;28;20088;-68
2022/09/03 09:15:48;;;;;;;4.20;1.77;;;18.50;82.30;;;;;;5017036;28;20032;-67
2022/09/03 09:18:29;;;;;;;4.97;1.65;;;18.60;82.60;;;;;;5004615;28;20731;-68
2022/09/03 09:21:07;;;;;;;4.07;2.00;;;18.60;82.20;;;;;;5029874;28;20456;-68
2022/09/03 09:23:38;;;;;;;3.67;1.65;;;18.70;82.20;;;;;;5029255;28;20036;-66
2022/09/03 09:26:09;;;;;;;2.70;1.70;;;18.80;82.10;;;;;;5043079;28;20029;-67
2022/09/03 09:28:37;;;;;;;3.28;1.95;;;18.80;81.50;;;;;;5016566;28;20037;-68
2022/09/03 09:31:06;;;;;;;3.90;1.50;;;18.90;81.70;;;;;;5024701;28;20289;-68
2022/09/03 09:33:33;;;;;;;3.15;1.75;;;19.10;81.70;;;;;;5027280;28;20385;-68
2022/09/03 09:36:07;;;;;;;3.92;1.90;;;19.10;81.00;;;;;;5031349;28;20025;-68
2022/09/03 09:38:35;;;;;;;3.35;2.05;;;19.20;80.40;;;;;;5028280;28;20116;-69
2022/09/03 09:41:18;;;;;;;5.40;1.70;;;19.30;79.80;;;;;;5014772;28;20037;-69
2022/09/03 09:43:46;;;;;;;5.68;2.03;;;19.40;79.00;;;;;;4996682;28;20242;-68
2022/09/03 09:46:19;;;;;;;2.70;1.70;;;19.40;79.70;;;;;;5015982;28;20030;-68
2022/09/03 09:48:56;;;;;;;6.65;2.38;;;19.50;79.00;;;;;;5014052;28;20022;-67
2022/09/03 09:51:30;;;;;;;3.55;2.00;;;19.60;78.90;;;;;;5018283;28;20030;-66
2022/09/03 09:54:18;;;;;;;2.30;1.30;;;19.70;78.30;;;;;;5021961;28;20033;-67
2022/09/03 09:56:45;;;;;;;2.35;1.50;;;19.70;78.20;;;;;;5030579;28;20365;-66
2022/09/03 09:59:14;;;;;;;3.78;1.70;;;19.80;77.70;;;;;;5026885;28;20036;-66
2022/09/03 10:01:44;;;;;;;3.60;1.60;;;19.90;76.50;;;;;;5018087;28;20400;-66
2022/09/03 10:04:30;;;;;;;2.35;1.40;;;19.90;75.70;;;;;;5017087;28;20025;-66
2022/09/03 10:07:19;;;;;;;4.00;1.65;;;20.00;75.50;;;;;;5014444;28;20042;-67
2022/09/03 10:09:44;;;;;;;2.47;1.40;;;20.10;73.80;;;;;;5020092;28;20328;-66
2022/09/03 10:12:40;;;;;;;2.80;1.50;;;20.20;74.40;;;;;;5015884;28;20352;-67
2022/09/03 10:15:28;;;;;;;2.30;1.42;;;20.20;73.30;;;;;;5018704;28;20051;-67
2022/09/03 10:18:05;;;;;;;1.88;1.42;;;20.30;72.30;;;;;;5016521;28;20068;-67
2022/09/03 10:20:37;;;;;;;2.45;1.40;;;20.40;71.10;;;;;;5015196;28;20025;-67
2022/09/03 10:23:08;;;;;;;3.13;1.55;;;20.50;71.30;;;;;;5016177;28;20528;-67
2022/09/03 10:25:46;;;;;;;3.35;1.52;;;20.60;70.70;;;;;;5001187;28;20038;-67
2022/09/03 10:28:12;;;;;;;2.20;1.55;;;20.60;70.30;;;;;;5026808;28;20084;-67
2022/09/03 10:30:58;;;;;;;3.75;1.35;;;20.70;70.90;;;;;;5030664;28;20030;-67
2022/09/03 10:33:36;;;;;;;2.83;1.30;;;20.80;70.80;;;;;;5025665;28;20637;-67
2022/09/03 10:36:16;;;;;;;4.43;1.90;;;20.80;70.10;;;;;;5027285;28;20039;-67
2022/09/03 10:38:43;;;;;;;4.85;1.80;;;20.80;69.40;;;;;;5031103;28;20047;-67
2022/09/03 10:41:27;;;;;;;3.17;1.50;;;20.90;69.20;;;;;;5027461;28;20281;-65
2022/09/03 10:44:18;;;;;;;3.50;1.60;;;20.90;69.40;;;;;;5028114;28;20048;-66
2022/09/03 10:47:11;;;;;;;3.53;1.60;;;20.90;69.30;;;;;;5017432;28;20029;-67
2022/09/03 10:49:48;;;;;;;2.90;1.40;;;21.00;69.50;;;;;;5017098;28;20048;-66
2022/09/03 10:52:35;;;;;;;3.42;2.13;;;21.10;69.40;;;;;;5023686;28;20030;-66
2022/09/03 10:55:18;;;;;;;2.50;1.45;;;21.30;69.60;;;;;;5029951;28;20075;-67
2022/09/03 10:58:15;;;;;;;2.63;1.50;;;21.40;69.30;;;;;;5027402;28;20091;-67
2022/09/03 11:00:51;;;;;;;4.05;1.52;;;21.40;69.00;;;;;;5020130;28;20119;-67
2022/09/03 11:03:45;;;;;;;3.47;1.50;;;21.50;68.10;;;;;;5026898;28;20183;-67
2022/09/03 11:06:36;;;;;;;2.30;1.52;;;21.60;68.40;;;;;;5019450;28;20041;-66
2022/09/03 11:09:11;;;;;;;2.25;1.38;;;21.60;67.20;;;;;;5016226;28;20025;-66
2022/09/03 11:11:50;;;;;;;2.28;1.48;;;21.70;66.50;;;;;;5022232;28;20361;-66
2022/09/03 11:14:38;;;;;;;4.18;1.75;;;21.80;66.40;;;;;;5031617;28;20034;-67
2022/09/03 11:17:24;;;;;;;2.85;1.50;;;21.80;65.70;;;;;;5028349;28;20124;-67
2022/09/03 11:20:04;;;;;;;3.17;1.70;;;21.90;65.60;;;;;;5026679;28;20037;-66
2022/09/03 11:22:30;;;;;;;2.17;1.30;;;21.90;65.10;;;;;;5013524;28;20369;-66
2022/09/03 11:24:59;;;;;;;1.90;1.40;;;22.00;64.50;;;;;;5012452;28;20033;-66
2022/09/03 11:27:40;;;;;;;2.67;1.70;;;22.10;64.60;;;;;;5027221;28;20042;-65
2022/09/03 11:30:10;;;;;;;2.65;1.67;;;22.20;65.10;;;;;;5030257;28;20046;-67
2022/09/03 11:32:41;;;;;;;1.92;1.30;;;22.40;64.50;;;;;;5009655;28;20375;-67
2022/09/03 11:35:16;;;;;;;2.90;1.67;;;22.40;63.40;;;;;;5027925;28;20100;-67
2022/09/03 11:38:30;;;;;;;3.97;1.40;;;22.40;63.40;;;;;;5021251;28;20046;-67
2022/09/03 11:40:57;;;;;;;2.95;1.50;;;22.30;63.70;;;;;;5019914;28;20037;-68
2022/09/03 11:43:23;;;;;;;2.95;1.63;;;22.30;63.50;;;;;;5028829;28;20032;-68
2022/09/03 11:45:49;;;;;;;2.60;1.50;;;22.40;63.10;;;;;;5029286;28;20026;-68
2022/09/03 11:48:44;;;;;;;2.28;1.30;;;22.40;62.90;;;;;;5022949;28;20504;-67
2022/09/03 11:51:31;;;;;;;3.70;1.55;;;22.40;62.70;;;;;;5019747;28;20026;-66
2022/09/03 11:53:58;;;;;;;2.75;1.52;;;22.50;62.30;;;;;;5022878;28;20083;-69
2022/09/03 11:56:24;;;;;;;1.83;1.10;;;22.50;62.70;;;;;;5021567;28;20034;-65
2022/09/03 11:59:01;;;;;;;2.25;1.40;;;22.50;61.90;;;;;;5024168;28;20030;-67
2022/09/03 12:01:27;;;;;;;2.45;1.20;;;22.50;61.40;;;;;;5022859;28;20026;-70
2022/09/03 12:04:02;;;;;;;2.65;1.63;;;22.50;61.30;;;;;;5020112;28;20037;-69
2022/09/03 12:06:40;;;;;;;2.35;1.45;;;22.50;61.70;;;;;;5020058;28;20087;-68
2022/09/03 12:09:32;;;;;;;4.45;1.52;;;22.60;60.10;;;;;;5030010;28;20053;-66
2022/09/03 12:11:58;;;;;;;3.38;1.38;;;22.60;60.00;;;;;;5021255;28;20120;-67
2022/09/03 12:14:56;;;;;;;3.88;1.65;;;22.60;60.20;;;;;;5020468;28;20121;-68
2022/09/03 12:17:27;;;;;;;2.67;1.50;;;22.60;59.90;;;;;;5029545;28;20041;-68
2022/09/03 12:19:57;;;;;;;2.40;1.50;;;22.60;59.90;;;;;;5025495;28;20025;-67
2022/09/03 12:22:30;;;;;;;3.80;1.58;;;22.60;59.10;;;;;;5025426;28;20036;-67
2022/09/03 12:25:10;;;;;;;2.65;1.50;;;22.70;59.30;;;;;;5026603;28;20029;-68
2022/09/03 12:27:36;;;;;;;2.58;1.50;;;22.70;59.10;;;;;;5026295;28;20032;-68
2022/09/03 12:30:04;;;;;;;2.15;1.60;;;22.70;59.80;;;;;;5026155;28;20022;-68
2022/09/03 12:32:35;;;;;;;3.17;1.60;;;22.80;59.70;;;;;;5025107;28;20108;-68
2022/09/03 12:35:23;;;;;;;2.33;1.48;;;22.80;59.10;;;;;;5030014;28;20028;-68
2022/09/03 12:37:51;;;;;;;3.17;1.40;;;22.90;60.20;;;;;;5012528;28;20042;-69
2022/09/03 12:40:26;;;;;;;3.67;1.50;;;23.10;59.30;;;;;;5016555;28;20108;-69
2022/09/03 12:42:53;;;;;;;3.47;1.63;;;23.20;58.70;;;;;;5014963;28;20045;-70
2022/09/03 12:45:22;;;;;;;3.05;2.08;;;23.20;58.70;;;;;;5017904;28;20021;-68
2022/09/03 12:47:47;;;;;;;3.50;1.48;;;23.30;58.70;;;;;;5002616;28;20033;-67
2022/09/03 12:50:20;;;;;;;2.42;1.48;;;23.30;56.70;;;;;;5014983;28;20022;-67
2022/09/03 12:52:47;;;;;;;3.13;1.40;;;23.40;57.20;;;;;;5017093;28;20672;-67
2022/09/03 12:55:31;;;;;;;2.30;1.58;;;23.40;57.20;;;;;;5014430;28;20066;-68
2022/09/03 12:58:23;;;;;;;5.25;1.70;;;23.50;57.90;;;;;;5014577;28;20033;-68
2022/09/03 13:01:08;;;;;;;4.47;2.13;;;23.60;57.20;;;;;;5018645;28;20520;-68
2022/09/03 13:03:49;;;;;;;2.58;1.40;;;23.60;56.90;;;;;;5005105;28;20048;-68
2022/09/03 13:06:19;;;;;;;2.45;1.58;;;23.50;56.50;;;;;;5031413;28;20626;-68
2022/09/03 13:08:53;;;;;;;4.53;1.80;;;23.40;56.20;;;;;;5019669;28;20037;-68
2022/09/03 13:11:21;;;;;;;2.17;1.30;;;23.40;56.20;;;;;;5028590;28;20479;-68
2022/09/03 13:13:54;;;;;;;2.55;1.38;;;23.30;56.60;;;;;;5031568;28;20255;-68
2022/09/03 13:16:22;;;;;;;3.88;1.80;;;23.30;57.20;;;;;;5033637;28;20033;-68
2022/09/03 13:19:00;;;;;;;2.92;1.65;;;23.30;56.60;;;;;;5030010;28;20038;-68